logo
Rechercher aéroport 
image banner adimage banner adimage banner ad
image banner ad

WSSS - Singapore / Singapore Changi International

Situé à Singapore, Singapore

ICAO - WSSS, IATA - SIN

Données fournies par Airmate  

Information générale

Coordonnées: N1°21'33" E103°59'22"
Élévation : 22 feet MSL.
 
Voir autres Aéroports à South East

Données opérationnelles

Special qualification required
Heure actuelle UTC:
Heure actuelle locale:
Météo
METAR: WSSS 281300Z 35009KT 9999 FEW018 BKN300 27/23 Q1009 NOSIG
TAF: TAF WSSS 281100Z 2812/2918 02009KT 9999 FEW015 SCT020
Voir NOTAMs / SUP AIP / TFR affectant cet aéroport [VIEW]
Fréquences de communication: [VIEW]

Pistes:

Identifiant RWYQFULongueur (ft)Largeur (ft)SurfaceLDA (ft)
02C23°13123197ASP
20C203°13123197ASP
02L23°13123197ASP
20R203°13123197ASP
02R23°13123197ASP
20L203°13123197ASP

Coordonnées de l'aéroport

Adresse: Singapore Singapore

Vue satellite de WSSS